UAE33T OMDB-EGPF
Flight info
| Callsign | UAE33T |
|---|---|
| Flight time | N/A |
| Altitude | 32000 |
| Route | ANVIX R401 GIDIS G783 VAVIM DCT PEKEM DCT MEDPO DCT ITRUX Y511 PMA Z712 WEJ L677 PASUM/N0500F340 L677 CVO DCT OTHON UN128 RDS UL609 MES UG18 FSK UN128 RUGAS DCT RAMAP DCT VIBOP DCT NIDLO/N0483F360 DCT SUBEN DCT ANELA L604 RELBI L602 RKN L980 TENLI L602 EMLON M79 TENDO DCT AGPED |
| Aircraft | B77W/H-SDE1E2E3FGHIJ2J3J4J5M1RWXY/LB1D1 |
Departure
| Time | 2026-04-25 11:56 |
|---|---|
| Airport | Dubai International Airport (OMDB) |
Arrival
| Time | N/A |
|---|---|
| Airport | Glasgow Airport (EGPF) |
| Time | Latitude | Longitude | Altitude | Speed | Heading |
|---|---|---|---|---|---|
| 2026-04-25 11:17 | 25.24586 | 55.36427 | 33 ft | 0 kts | 31° |
| 2026-04-25 11:28 | 25.24587 | 55.36427 | 33 ft | 0 kts | 31° |
| 2026-04-25 11:28 | 25.24587 | 55.36428 | 33 ft | 0 kts | 31° |
| 2026-04-25 11:29 | 25.24588 | 55.36428 | 33 ft | 0 kts | 31° |
| 2026-04-25 11:30 | 25.24588 | 55.36429 | 33 ft | 0 kts | 31° |
| 2026-04-25 11:31 | 25.24577 | 55.36421 | 33 ft | 3 kts | 31° |
| 2026-04-25 11:31 | 25.24555 | 55.36406 | 33 ft | 3 kts | 31° |
| 2026-04-25 11:31 | 25.24532 | 55.36391 | 33 ft | 3 kts | 31° |
| 2026-04-25 11:31 | 25.24516 | 55.36381 | 33 ft | 0 kts | 17° |
| 2026-04-25 11:32 | 25.24510 | 55.36380 | 33 ft | 1 kts | 0° |
| 2026-04-25 11:32 | 25.24498 | 55.36382 | 33 ft | 1 kts | 334° |
| 2026-04-25 11:32 | 25.24497 | 55.36383 | 34 ft | 1 kts | 333° |
| 2026-04-25 11:32 | 25.24514 | 55.36371 | 33 ft | 3 kts | 315° |
| 2026-04-25 11:33 | 25.24520 | 55.36363 | 33 ft | 0 kts | 312° |
| 2026-04-25 11:37 | 25.24527 | 55.36352 | 33 ft | 6 kts | 306° |
| 2026-04-25 11:37 | 25.24569 | 55.36280 | 33 ft | 15 kts | 302° |
| 2026-04-25 11:37 | 25.24633 | 55.36167 | 32 ft | 17 kts | 302° |
| 2026-04-25 11:37 | 25.24688 | 55.36069 | 29 ft | 8 kts | 301° |
| 2026-04-25 11:38 | 25.24719 | 55.36014 | 28 ft | 8 kts | 301° |
| 2026-04-25 11:38 | 25.24757 | 55.35944 | 29 ft | 11 kts | 301° |
| 2026-04-25 11:38 | 25.24791 | 55.35881 | 31 ft | 7 kts | 301° |
| 2026-04-25 11:38 | 25.24816 | 55.35838 | 32 ft | 8 kts | 302° |
| 2026-04-25 11:39 | 25.24859 | 55.35762 | 32 ft | 11 kts | 302° |
| 2026-04-25 11:39 | 25.24903 | 55.35689 | 30 ft | 10 kts | 308° |
| 2026-04-25 11:39 | 25.24954 | 55.35616 | 32 ft | 11 kts | 306° |
| 2026-04-25 11:39 | 25.24989 | 55.35548 | 33 ft | 8 kts | 300° |
| 2026-04-25 11:40 | 25.25018 | 55.35495 | 33 ft | 9 kts | 302° |
| 2026-04-25 11:40 | 25.25070 | 55.35403 | 32 ft | 16 kts | 302° |
| 2026-04-25 11:40 | 25.25128 | 55.35302 | 31 ft | 14 kts | 304° |
| 2026-04-25 11:40 | 25.25191 | 55.35213 | 28 ft | 14 kts | 307° |
| 2026-04-25 11:41 | 25.25242 | 55.35126 | 28 ft | 11 kts | 301° |
| 2026-04-25 11:41 | 25.25284 | 55.35049 | 30 ft | 11 kts | 300° |
| 2026-04-25 11:41 | 25.25320 | 55.34980 | 32 ft | 9 kts | 301° |
| 2026-04-25 11:41 | 25.25351 | 55.34929 | 34 ft | 6 kts | 312° |
| 2026-04-25 11:42 | 25.25383 | 55.34904 | 35 ft | 4 kts | 334° |
| 2026-04-25 11:42 | 25.25414 | 55.34896 | 35 ft | 5 kts | 0° |
| 2026-04-25 11:42 | 25.25461 | 55.34905 | 35 ft | 9 kts | 15° |
| 2026-04-25 11:42 | 25.25533 | 55.34949 | 36 ft | 14 kts | 31° |
| 2026-04-25 11:43 | 25.25623 | 55.35009 | 36 ft | 14 kts | 31° |
| 2026-04-25 11:43 | 25.25706 | 55.35063 | 36 ft | 12 kts | 31° |
| 2026-04-25 11:43 | 25.25716 | 55.35145 | 36 ft | 15 kts | 138° |
| 2026-04-25 11:43 | 25.25675 | 55.35238 | 37 ft | 12 kts | 114° |
| 2026-04-25 11:44 | 25.25640 | 55.35312 | 38 ft | 10 kts | 120° |
| 2026-04-25 11:44 | 25.25613 | 55.35359 | 37 ft | 0 kts | 121° |
| 2026-04-25 11:44 | 25.25610 | 55.35364 | 37 ft | 2 kts | 121° |
| 2026-04-25 11:44 | 25.25592 | 55.35395 | 36 ft | 6 kts | 126° |
| 2026-04-25 11:45 | 25.25559 | 55.35429 | 35 ft | 6 kts | 144° |
| 2026-04-25 11:45 | 25.25506 | 55.35473 | 33 ft | 9 kts | 153° |
| 2026-04-25 11:45 | 25.25490 | 55.35462 | 33 ft | 3 kts | 261° |
| 2026-04-25 11:45 | 25.25494 | 55.35412 | 33 ft | 9 kts | 281° |
| 2026-04-25 11:46 | 25.25529 | 55.35324 | 34 ft | 12 kts | 299° |
| 2026-04-25 11:46 | 25.25575 | 55.35240 | 34 ft | 13 kts | 302° |
| 2026-04-25 11:46 | 25.25620 | 55.35161 | 35 ft | 10 kts | 302° |
| 2026-04-25 11:46 | 25.25624 | 55.35155 | 35 ft | 1 kts | 319° |
| 2026-04-25 11:47 | 25.25647 | 55.35160 | 36 ft | 4 kts | 22° |
| 2026-04-25 11:47 | 25.25687 | 55.35178 | 36 ft | 9 kts | 23° |
| 2026-04-25 11:47 | 25.25738 | 55.35202 | 37 ft | 7 kts | 23° |
| 2026-04-25 11:47 | 25.25776 | 55.35223 | 37 ft | 5 kts | 26° |
| 2026-04-25 11:48 | 25.25821 | 55.35253 | 36 ft | 12 kts | 32° |
| 2026-04-25 11:48 | 25.25896 | 55.35305 | 36 ft | 11 kts | 32° |
| 2026-04-25 11:48 | 25.25949 | 55.35342 | 36 ft | 7 kts | 32° |
| 2026-04-25 11:48 | 25.25972 | 55.35365 | 37 ft | 0 kts | 55° |
| 2026-04-25 11:49 | 25.25975 | 55.35372 | 37 ft | 4 kts | 65° |
| 2026-04-25 11:49 | 25.25991 | 55.35434 | 38 ft | 12 kts | 81° |
| 2026-04-25 11:49 | 25.25974 | 55.35551 | 39 ft | 19 kts | 111° |
| 2026-04-25 11:49 | 25.25894 | 55.35706 | 40 ft | 24 kts | 123° |
| 2026-04-25 11:50 | 25.25807 | 55.35850 | 42 ft | 20 kts | 122° |
| 2026-04-25 11:50 | 25.25739 | 55.35979 | 42 ft | 18 kts | 120° |
| 2026-04-25 11:50 | 25.25680 | 55.36089 | 44 ft | 14 kts | 121° |
| 2026-04-25 11:50 | 25.25631 | 55.36177 | 45 ft | 13 kts | 121° |
| 2026-04-25 11:51 | 25.25563 | 55.36302 | 45 ft | 23 kts | 120° |
| 2026-04-25 11:51 | 25.25464 | 55.36480 | 46 ft | 28 kts | 122° |
| 2026-04-25 11:51 | 25.25366 | 55.36655 | 48 ft | 24 kts | 120° |
| 2026-04-25 11:51 | 25.25286 | 55.36806 | 49 ft | 21 kts | 121° |
| 2026-04-25 11:52 | 25.25212 | 55.36935 | 51 ft | 18 kts | 122° |
| 2026-04-25 11:52 | 25.25151 | 55.37043 | 52 ft | 15 kts | 122° |
| 2026-04-25 11:52 | 25.25138 | 55.37064 | 52 ft | 2 kts | 122° |
| 2026-04-25 11:52 | 25.25108 | 55.37116 | 52 ft | 13 kts | 122° |
| 2026-04-25 11:53 | 25.25042 | 55.37236 | 52 ft | 22 kts | 120° |
| 2026-04-25 11:53 | 25.24955 | 55.37400 | 53 ft | 19 kts | 121° |
| 2026-04-25 11:53 | 25.24891 | 55.37512 | 55 ft | 15 kts | 122° |
| 2026-04-25 11:53 | 25.24834 | 55.37614 | 55 ft | 17 kts | 121° |
| 2026-04-25 11:54 | 25.24785 | 55.37704 | 55 ft | 20 kts | 121° |
| 2026-04-25 11:54 | 25.24733 | 55.37796 | 55 ft | 10 kts | 121° |
| 2026-04-25 11:54 | 25.24672 | 55.37944 | 57 ft | 8 kts | 75° |
| 2026-04-25 11:55 | 25.24693 | 55.37977 | 58 ft | 4 kts | 33° |
| 2026-04-25 11:55 | 25.24719 | 55.37995 | 58 ft | 7 kts | 30° |
| 2026-04-25 11:55 | 25.24787 | 55.38022 | 58 ft | 10 kts | 355° |
| 2026-04-25 11:55 | 25.24813 | 55.38009 | 58 ft | 0 kts | 304° |
| 2026-04-25 11:56 | 25.24945 | 55.37778 | 55 ft | 75 kts | 300° |
| 2026-04-25 11:56 | 25.25356 | 55.37038 | 52 ft | 148 kts | 301° |
| 2026-04-25 11:56 | 25.25980 | 55.35915 | 369 ft | 184 kts | 301° |
| 2026-04-25 11:56 | 25.26625 | 55.34719 | 1216 ft | 190 kts | 302° |
| 2026-04-25 11:57 | 25.27311 | 55.33485 | 2253 ft | 190 kts | 301° |
| 2026-04-25 11:57 | 25.28003 | 55.32246 | 3175 ft | 196 kts | 301° |
| 2026-04-25 11:57 | 25.28721 | 55.30931 | 3900 ft | 212 kts | 295° |
| 2026-04-25 11:57 | 25.29065 | 55.29435 | 5068 ft | 202 kts | 271° |
| 2026-04-25 11:58 | 25.28888 | 55.27909 | 5933 ft | 211 kts | 251° |
| 2026-04-25 11:58 | 25.28268 | 55.26364 | 6661 ft | 228 kts | 245° |
| 2026-04-25 11:58 | 25.27518 | 55.24654 | 6973 ft | 269 kts | 245° |
| 2026-04-25 11:58 | 25.26642 | 55.22604 | 6992 ft | 320 kts | 246° |
| 2026-04-25 11:59 | 25.25697 | 55.20403 | 6968 ft | 310 kts | 243° |
| 2026-04-25 11:59 | 25.24395 | 55.18559 | 6957 ft | 298 kts | 221° |
| 2026-04-25 11:59 | 25.22533 | 55.17459 | 7510 ft | 308 kts | 196° |
| 2026-04-25 12:00 | 25.18542 | 55.17665 | 9689 ft | 288 kts | 154° |
| 2026-04-25 12:00 | 25.16968 | 55.19023 | 10414 ft | 293 kts | 130° |
| 2026-04-25 12:00 | 25.15313 | 55.23244 | 11619 ft | 305 kts | 113° |
| 2026-04-25 12:01 | 25.14463 | 55.25387 | 12304 ft | 307 kts | 118° |
| 2026-04-25 12:01 | 25.13496 | 55.27504 | 12967 ft | 310 kts | 119° |
| 2026-04-25 12:01 | 25.12487 | 55.29622 | 13605 ft | 314 kts | 119° |
| 2026-04-25 12:01 | 25.11470 | 55.31736 | 14207 ft | 318 kts | 119° |
| 2026-04-25 12:02 | 25.09491 | 55.36162 | 15412 ft | 327 kts | 115° |
| 2026-04-25 12:02 | 25.08417 | 55.38401 | 15783 ft | 336 kts | 130° |
| 2026-04-25 12:02 | 25.06622 | 55.40152 | 15887 ft | 351 kts | 154° |
| 2026-04-25 12:03 | 25.04283 | 55.41088 | 16013 ft | 366 kts | 167° |
| 2026-04-25 12:03 | 25.01754 | 55.41746 | 16239 ft | 382 kts | 169° |
| 2026-04-25 12:03 | 24.99087 | 55.42414 | 16501 ft | 398 kts | 169° |
| 2026-04-25 12:03 | 24.96346 | 55.43100 | 16750 ft | 413 kts | 168° |
| 2026-04-25 12:04 | 24.93456 | 55.43823 | 17047 ft | 425 kts | 169° |
| 2026-04-25 12:04 | 24.90565 | 55.44546 | 17532 ft | 431 kts | 169° |
| 2026-04-25 12:04 | 24.87595 | 55.45289 | 18161 ft | 433 kts | 169° |
| 2026-04-25 12:04 | 24.84649 | 55.46026 | 18823 ft | 435 kts | 169° |
| 2026-04-25 12:05 | 24.81696 | 55.46765 | 19311 ft | 438 kts | 169° |
| 2026-04-25 12:05 | 24.78674 | 55.47519 | 19834 ft | 442 kts | 169° |
| 2026-04-25 12:05 | 24.75668 | 55.48270 | 20348 ft | 446 kts | 169° |
| 2026-04-25 12:05 | 24.72611 | 55.49034 | 20909 ft | 448 kts | 169° |
| 2026-04-25 12:06 | 24.69593 | 55.49787 | 21459 ft | 451 kts | 170° |
| 2026-04-25 12:06 | 24.66444 | 55.50572 | 21953 ft | 454 kts | 169° |
| 2026-04-25 12:06 | 24.63338 | 55.51346 | 22423 ft | 458 kts | 170° |
| 2026-04-25 12:06 | 24.60220 | 55.52123 | 22945 ft | 460 kts | 170° |
| 2026-04-25 12:07 | 24.57082 | 55.52905 | 23408 ft | 463 kts | 170° |
| 2026-04-25 12:07 | 24.53911 | 55.53694 | 23857 ft | 466 kts | 170° |
| 2026-04-25 12:07 | 24.50731 | 55.54485 | 24284 ft | 469 kts | 169° |
| 2026-04-25 12:07 | 24.47516 | 55.55285 | 24694 ft | 472 kts | 170° |
| 2026-04-25 12:08 | 24.44286 | 55.56088 | 25115 ft | 475 kts | 169° |
| 2026-04-25 12:08 | 24.41048 | 55.56893 | 25579 ft | 477 kts | 169° |
| 2026-04-25 12:08 | 24.37760 | 55.57709 | 26012 ft | 480 kts | 169° |
| 2026-04-25 12:08 | 24.34469 | 55.58527 | 26427 ft | 483 kts | 169° |
| 2026-04-25 12:09 | 24.31196 | 55.59336 | 26807 ft | 486 kts | 171° |
| 2026-04-25 12:09 | 24.27832 | 55.59835 | 27177 ft | 486 kts | 179° |
| 2026-04-25 12:09 | 24.24443 | 55.59768 | 27550 ft | 486 kts | 188° |
| 2026-04-25 12:09 | 24.21083 | 55.59135 | 27959 ft | 485 kts | 195° |
| 2026-04-25 12:10 | 24.17798 | 55.58189 | 28408 ft | 486 kts | 197° |
| 2026-04-25 12:10 | 24.14534 | 55.57214 | 28843 ft | 488 kts | 197° |
| 2026-04-25 12:10 | 24.11247 | 55.56230 | 29277 ft | 490 kts | 197° |
| 2026-04-25 12:10 | 24.07952 | 55.55244 | 29807 ft | 490 kts | 197° |
| 2026-04-25 12:11 | 24.04625 | 55.54250 | 30411 ft | 488 kts | 198° |
| 2026-04-25 12:11 | 24.01368 | 55.53278 | 31017 ft | 485 kts | 198° |
| 2026-04-25 12:11 | 23.98094 | 55.52303 | 31612 ft | 483 kts | 198° |
| 2026-04-25 12:11 | 23.94855 | 55.51340 | 31896 ft | 485 kts | 198° |
| 2026-04-25 12:12 | 23.89368 | 55.49710 | 31907 ft | 484 kts | 198° |
| 2026-04-25 12:12 | 23.81727 | 55.47443 | 31904 ft | 484 kts | 198° |
| 2026-04-25 12:13 | 23.75190 | 55.45501 | 31900 ft | 485 kts | 198° |